Time;durP1;ratioP1;P1;durP2;ratioP2;P2;SDS_P1;SDS_P2;PMS_P1;PMS_P2;Temp;Humidity;BMP_temperature;BMP_pressure;BME280_temperature;BME280_humidity;BME280_pressure;Samples;Min_cycle;Max_cycle;Signal;HPM_P1;HPM_P2
2021/03/01 00:00:45;;;;;;;13.50;12.23;;;28.40;87.60;;;;;;5129579;27;20244;-47
2021/03/01 00:03:16;;;;;;;13.13;11.82;;;28.40;88.40;;;;;;5118006;27;20244;-49
2021/03/01 00:05:47;;;;;;;13.25;12.05;;;28.40;87.70;;;;;;5129439;27;20297;-52
2021/03/01 00:08:18;;;;;;;14.10;12.90;;;28.40;87.80;;;;;;5141572;27;20201;-49
2021/03/01 00:10:48;;;;;;;13.95;12.85;;;28.40;87.90;;;;;;5129236;27;20200;-47
2021/03/01 00:13:20;;;;;;;12.50;11.32;;;28.50;88.20;;;;;;5128552;27;20650;-50
2021/03/01 00:15:50;;;;;;;12.68;11.57;;;28.50;88.20;;;;;;5129358;27;20245;-51
2021/03/01 00:18:21;;;;;;;13.68;12.48;;;28.50;88.40;;;;;;5129389;27;20200;-47
2021/03/01 00:20:53;;;;;;;14.02;12.82;;;28.50;88.50;;;;;;5128811;27;20206;-49
2021/03/01 00:23:24;;;;;;;13.10;11.90;;;28.50;88.60;;;;;;5129147;27;20237;-49
2021/03/01 00:25:54;;;;;;;13.20;12.02;;;28.60;88.70;;;;;;5129316;27;20238;-47
2021/03/01 00:28:24;;;;;;;13.68;12.57;;;28.60;88.80;;;;;;5128885;27;20887;-47
2021/03/01 00:30:55;;;;;;;12.90;11.82;;;28.60;88.90;;;;;;5128182;27;20669;-47
2021/03/01 00:33:25;;;;;;;13.00;11.90;;;28.60;89.10;;;;;;5124938;27;20203;-53
2021/03/01 00:35:57;;;;;;;13.10;11.90;;;28.70;89.10;;;;;;5128850;27;20283;-52
2021/03/01 00:38:29;;;;;;;13.63;12.52;;;28.80;89.30;;;;;;5121556;27;20276;-49
2021/03/01 00:41:00;;;;;;;13.15;12.10;;;28.80;89.40;;;;;;5119184;27;20188;-53
2021/03/01 00:43:32;;;;;;;15.45;14.15;;;28.80;89.30;;;;;;5123238;27;20234;-51
2021/03/01 00:46:02;;;;;;;14.98;13.48;;;28.90;89.50;;;;;;5117122;27;20705;-47
2021/03/01 00:48:33;;;;;;;13.80;12.65;;;28.90;89.60;;;;;;5118686;27;20658;-53
2021/03/01 00:51:12;;;;;;;13.70;12.60;;;29.00;90.00;;;;;;5116565;27;20207;-53
2021/03/01 00:53:43;;;;;;;13.52;12.35;;;29.00;89.50;;;;;;5117921;27;20940;-51
2021/03/01 00:56:14;;;;;;;13.65;12.52;;;29.10;89.60;;;;;;5119499;27;20201;-47
2021/03/01 00:58:44;;;;;;;14.52;13.02;;;29.10;89.40;;;;;;5120502;27;20190;-49
2021/03/01 01:01:17;;;;;;;14.38;13.13;;;29.20;89.40;;;;;;5124325;27;20739;-47
2021/03/01 01:03:52;;;;;;;13.40;12.27;;;29.20;89.30;;;;;;5121634;28;20220;-49
2021/03/01 01:06:24;;;;;;;14.40;13.20;;;29.20;89.30;;;;;;5118340;28;20615;-50
2021/03/01 01:08:55;;;;;;;13.05;12.00;;;29.30;89.20;;;;;;5114829;28;20860;-47
2021/03/01 01:11:25;;;;;;;13.63;12.43;;;29.40;89.10;;;;;;5112447;28;20241;-53
2021/03/01 01:13:56;;;;;;;13.32;12.20;;;29.40;88.80;;;;;;5119371;28;20235;-50
2021/03/01 01:16:27;;;;;;;15.35;13.98;;;29.40;88.70;;;;;;5116902;28;20566;-47
2021/03/01 01:18:57;;;;;;;15.40;14.00;;;29.50;88.80;;;;;;5113886;28;20597;-51
2021/03/01 01:21:31;;;;;;;14.20;13.00;;;29.50;88.40;;;;;;5113392;28;20191;-49
2021/03/01 01:24:01;;;;;;;14.75;13.55;;;29.60;88.20;;;;;;5119213;28;20202;-49
2021/03/01 01:26:32;;;;;;;13.35;12.23;;;29.60;88.20;;;;;;5123336;28;20216;-48
2021/03/01 01:29:02;;;;;;;13.73;12.52;;;29.60;88.10;;;;;;5111882;28;20635;-48
2021/03/01 01:31:33;;;;;;;13.73;12.52;;;29.70;88.20;;;;;;5113828;28;20184;-48
2021/03/01 01:34:04;;;;;;;14.90;13.60;;;29.70;88.30;;;;;;5111109;28;20198;-48
2021/03/01 01:36:36;;;;;;;15.45;14.05;;;29.80;88.40;;;;;;5114972;28;20561;-51
2021/03/01 01:39:07;;;;;;;14.68;13.40;;;29.80;88.40;;;;;;5110968;28;20187;-49
2021/03/01 01:41:38;;;;;;;15.30;13.85;;;29.90;88.30;;;;;;5112817;28;20662;-49
2021/03/01 01:44:09;;;;;;;17.42;15.93;;;29.90;88.20;;;;;;5111540;28;20196;-50
2021/03/01 01:46:39;;;;;;;17.83;16.02;;;30.00;87.60;;;;;;5116830;28;20205;-49
2021/03/01 01:49:10;;;;;;;15.63;14.32;;;30.10;87.30;;;;;;5114123;28;20208;-49
2021/03/01 01:51:42;;;;;;;14.13;12.93;;;30.10;87.20;;;;;;5117810;28;20188;-50
2021/03/01 01:54:13;;;;;;;13.55;12.43;;;30.20;87.10;;;;;;5113494;28;20184;-49
2021/03/01 01:56:44;;;;;;;13.23;12.15;;;30.30;88.00;;;;;;5112620;28;20214;-51
2021/03/01 01:59:14;;;;;;;12.70;11.45;;;30.30;86.80;;;;;;5125739;28;20596;-54
2021/03/01 02:01:45;;;;;;;11.90;11.00;;;30.30;86.60;;;;;;5120432;28;20196;-52
2021/03/01 02:04:19;;;;;;;13.23;12.07;;;30.40;86.20;;;;;;5112657;28;20930;-51
2021/03/01 02:06:54;;;;;;;16.98;15.43;;;30.50;86.00;;;;;;5051108;28;20259;-53
2021/03/01 02:09:50;;;;;;;13.63;12.43;;;30.50;85.90;;;;;;5049633;28;20266;-47
2021/03/01 02:12:22;;;;;;;12.10;11.15;;;30.60;85.20;;;;;;5002494;28;20207;-52
2021/03/01 02:15:05;;;;;;;12.65;11.65;;;30.70;85.20;;;;;;5005728;28;20912;-52
2021/03/01 02:17:35;;;;;;;11.73;10.73;;;30.80;84.10;;;;;;5004387;28;20853;-51
2021/03/01 02:20:10;;;;;;;15.52;14.13;;;30.90;84.80;;;;;;5006451;28;20227;-51
2021/03/01 02:22:42;;;;;;;14.05;12.95;;;31.00;84.20;;;;;;4997055;28;20293;-53
2021/03/01 02:25:13;;;;;;;11.68;10.75;;;31.00;83.60;;;;;;5004446;28;20244;-54
2021/03/01 02:27:49;;;;;;;12.00;11.02;;;31.10;83.70;;;;;;5004761;28;20254;-51
2021/03/01 02:30:24;;;;;;;12.57;11.50;;;31.20;82.80;;;;;;5008253;28;20290;-51
2021/03/01 02:32:57;;;;;;;12.40;11.38;;;31.30;81.90;;;;;;5054230;28;20997;-52
2021/03/01 02:35:27;;;;;;;12.02;10.93;;;31.40;81.10;;;;;;5055932;28;20187;-51
2021/03/01 02:38:00;;;;;;;11.32;10.38;;;31.50;81.30;;;;;;5051104;28;20201;-50
2021/03/01 02:40:31;;;;;;;10.63;9.73;;;31.60;81.00;;;;;;5052791;28;20887;-50
2021/03/01 02:43:01;;;;;;;10.48;9.68;;;31.80;80.30;;;;;;5079279;27;20556;-50
2021/03/01 02:45:32;;;;;;;10.15;9.27;;;31.80;79.80;;;;;;5114333;27;20231;-49
2021/03/01 02:48:02;;;;;;;10.75;9.50;;;31.90;80.20;;;;;;5116754;27;20279;-48
2021/03/01 02:50:33;;;;;;;10.25;9.43;;;32.10;79.10;;;;;;5115689;27;20208;-49
2021/03/01 02:53:05;;;;;;;11.00;10.00;;;32.10;78.10;;;;;;5111975;27;20272;-49
2021/03/01 02:55:36;;;;;;;10.27;9.48;;;32.30;77.20;;;;;;5121492;27;20192;-49
2021/03/01 02:58:09;;;;;;;11.15;10.27;;;32.40;77.50;;;;;;5122124;27;20241;-50
2021/03/01 03:00:40;;;;;;;10.77;9.73;;;32.40;76.20;;;;;;5114195;27;20200;-48
2021/03/01 03:03:12;;;;;;;11.45;10.20;;;32.50;75.30;;;;;;5117870;27;20300;-47
2021/03/01 03:05:43;;;;;;;10.15;9.35;;;32.60;73.10;;;;;;5120042;27;20286;-47
2021/03/01 03:08:16;;;;;;;9.75;8.95;;;32.60;73.50;;;;;;5130549;27;20203;-53
2021/03/01 03:10:47;;;;;;;9.93;9.13;;;32.70;73.70;;;;;;5130881;27;20196;-49
2021/03/01 03:13:17;;;;;;;9.52;8.60;;;32.80;73.50;;;;;;5056946;28;20541;-47
2021/03/01 03:15:48;;;;;;;10.68;9.88;;;32.80;72.80;;;;;;4999891;28;20752;-47
2021/03/01 03:18:19;;;;;;;10.07;9.30;;;33.00;72.40;;;;;;4951856;28;20827;-47
2021/03/01 03:20:49;;;;;;;10.07;9.20;;;33.00;72.60;;;;;;4947540;28;20205;-49
2021/03/01 03:23:21;;;;;;;10.10;9.30;;;33.10;72.30;;;;;;4949051;28;20212;-47
2021/03/01 03:25:52;;;;;;;10.27;9.38;;;33.20;72.10;;;;;;4949784;28;20222;-49
2021/03/01 03:28:22;;;;;;;10.43;9.63;;;33.30;72.00;;;;;;4946023;28;20240;-50
2021/03/01 03:30:58;;;;;;;9.48;8.75;;;33.40;70.90;;;;;;4964110;28;20195;-48
2021/03/01 03:33:29;;;;;;;9.82;9.02;;;33.40;71.20;;;;;;5004900;28;20455;-49
2021/03/01 03:35:59;;;;;;;10.15;9.32;;;33.50;71.20;;;;;;5001457;28;20208;-47
2021/03/01 03:38:32;;;;;;;10.43;9.50;;;33.50;70.70;;;;;;5004743;28;20206;-47
2021/03/01 03:41:04;;;;;;;9.50;8.80;;;33.60;69.40;;;;;;5043490;28;20670;-50
2021/03/01 03:43:35;;;;;;;9.80;9.00;;;33.70;69.70;;;;;;5053658;28;20568;-49
2021/03/01 03:46:05;;;;;;;10.02;9.23;;;33.70;69.50;;;;;;5053432;28;20641;-48
2021/03/01 03:48:36;;;;;;;9.50;8.70;;;33.80;69.30;;;;;;5062488;27;20301;-50
2021/03/01 03:51:08;;;;;;;9.45;8.75;;;33.90;68.90;;;;;;5127796;27;20213;-48
2021/03/01 03:53:43;;;;;;;10.27;9.38;;;33.90;68.20;;;;;;5130217;27;20294;-54
2021/03/01 03:56:13;;;;;;;9.93;9.10;;;34.00;67.20;;;;;;5125867;27;20222;-51
2021/03/01 03:58:46;;;;;;;9.98;9.18;;;34.20;67.40;;;;;;5117312;27;20196;-51
2021/03/01 04:01:17;;;;;;;9.68;8.90;;;34.20;66.40;;;;;;5084586;28;20613;-49
2021/03/01 04:03:48;;;;;;;9.23;8.52;;;34.30;65.10;;;;;;5018333;28;20485;-53
2021/03/01 04:06:18;;;;;;;9.80;9.00;;;34.40;64.40;;;;;;5014074;28;20199;-50
2021/03/01 04:08:50;;;;;;;9.85;9.05;;;34.50;64.60;;;;;;5020085;28;20206;-50
2021/03/01 04:11:21;;;;;;;10.00;9.18;;;34.50;64.60;;;;;;5011170;28;20259;-51
2021/03/01 04:13:52;;;;;;;10.23;9.32;;;34.60;64.40;;;;;;5021219;28;20689;-48
2021/03/01 04:16:23;;;;;;;10.55;9.65;;;34.60;64.20;;;;;;4961985;28;20265;-48
2021/03/01 04:18:55;;;;;;;8.85;8.18;;;34.70;63.50;;;;;;4958825;28;20213;-50
2021/03/01 04:21:25;;;;;;;11.05;10.25;;;34.80;63.30;;;;;;4966344;28;20313;-50
2021/03/01 04:23:57;;;;;;;9.77;9.02;;;34.80;61.40;;;;;;4910108;29;20207;-51
2021/03/01 04:26:27;;;;;;;9.88;8.98;;;34.80;62.60;;;;;;4939045;29;20236;-48
2021/03/01 04:28:59;;;;;;;9.40;8.70;;;34.90;62.00;;;;;;4946773;29;20749;-50
2021/03/01 04:31:29;;;;;;;10.18;9.40;;;34.90;62.00;;;;;;4947463;29;20304;-48
2021/03/01 04:33:59;;;;;;;10.43;9.43;;;35.00;61.50;;;;;;4956220;28;20217;-49
2021/03/01 04:36:30;;;;;;;9.88;8.82;;;35.00;61.50;;;;;;5006052;28;20223;-48
2021/03/01 04:39:02;;;;;;;9.80;9.00;;;35.10;61.60;;;;;;5005454;28;20206;-49
2021/03/01 04:41:33;;;;;;;10.52;9.73;;;35.20;60.80;;;;;;5005840;28;20259;-49
2021/03/01 04:44:05;;;;;;;10.02;9.27;;;35.30;60.50;;;;;;5005778;28;20293;-51
2021/03/01 04:46:35;;;;;;;12.63;10.65;;;35.30;60.20;;;;;;5015554;28;20667;-49
2021/03/01 04:49:06;;;;;;;10.23;9.43;;;35.40;60.30;;;;;;5064888;28;20208;-48
2021/03/01 04:51:37;;;;;;;11.02;10.02;;;35.50;61.20;;;;;;5064662;28;20209;-48
2021/03/01 04:54:10;;;;;;;10.77;9.77;;;35.50;59.90;;;;;;5074456;27;20215;-48
2021/03/01 04:56:44;;;;;;;9.60;8.90;;;35.60;60.30;;;;;;5125443;27;20855;-50
2021/03/01 04:59:14;;;;;;;10.15;9.25;;;35.70;59.80;;;;;;5124461;27;20729;-49
2021/03/01 05:01:44;;;;;;;10.60;9.80;;;35.70;59.60;;;;;;5064589;28;20896;-48
2021/03/01 05:04:15;;;;;;;11.10;10.20;;;35.70;59.20;;;;;;5064661;28;20229;-48
2021/03/01 05:06:46;;;;;;;10.35;9.55;;;35.70;58.60;;;;;;5064775;28;20673;-49
2021/03/01 05:09:17;;;;;;;11.57;10.57;;;35.70;58.80;;;;;;5065141;28;20729;-49
2021/03/01 05:11:48;;;;;;;11.15;10.07;;;35.80;58.30;;;;;;5064866;28;20209;-50
2021/03/01 05:14:18;;;;;;;12.13;11.02;;;35.90;58.30;;;;;;5064783;28;20288;-50
2021/03/01 05:16:52;;;;;;;12.25;11.20;;;35.90;58.80;;;;;;5054024;28;20809;-53
2021/03/01 05:19:23;;;;;;;11.18;10.38;;;35.90;57.60;;;;;;5064994;28;20651;-54
2021/03/01 05:21:53;;;;;;;12.75;11.77;;;36.00;58.10;;;;;;5064739;28;20861;-50
2021/03/01 05:24:25;;;;;;;13.73;12.52;;;36.10;58.10;;;;;;5064536;28;20553;-51
2021/03/01 05:26:55;;;;;;;14.50;13.20;;;36.10;57.70;;;;;;5064421;28;20197;-53
2021/03/01 05:29:26;;;;;;;13.68;12.60;;;36.10;57.90;;;;;;5064883;28;20735;-52
2021/03/01 05:31:56;;;;;;;13.93;12.75;;;36.00;57.80;;;;;;5074959;28;20199;-52
2021/03/01 05:34:27;;;;;;;13.50;12.50;;;36.10;57.70;;;;;;5128116;28;20195;-49
2021/03/01 05:36:58;;;;;;;14.77;13.48;;;36.10;57.70;;;;;;5125987;28;20212;-52
2021/03/01 05:39:30;;;;;;;12.65;11.63;;;36.10;57.70;;;;;;5128950;28;20616;-48
2021/03/01 05:42:01;;;;;;;12.50;11.50;;;36.10;58.10;;;;;;5128871;28;20244;-49
2021/03/01 05:44:32;;;;;;;14.75;13.55;;;36.10;58.00;;;;;;5127956;28;20204;-47
2021/03/01 05:47:03;;;;;;;16.58;15.23;;;36.10;57.50;;;;;;5105440;28;20262;-49
2021/03/01 05:49:35;;;;;;;18.48;16.92;;;36.10;57.40;;;;;;5107638;28;20215;-51
2021/03/01 05:52:05;;;;;;;24.35;21.90;;;36.10;57.40;;;;;;5107231;28;20208;-49
2021/03/01 05:54:37;;;;;;;19.25;17.55;;;36.10;56.90;;;;;;5107660;28;20219;-50
2021/03/01 05:57:07;;;;;;;17.30;15.90;;;36.00;56.80;;;;;;5096127;28;20223;-48
2021/03/01 05:59:38;;;;;;;16.48;15.18;;;36.00;57.10;;;;;;5087626;28;20218;-48
2021/03/01 06:02:10;;;;;;;23.02;21.23;;;36.00;57.10;;;;;;5087370;28;20455;-48
2021/03/01 06:04:41;;;;;;;21.05;19.25;;;35.90;56.50;;;;;;5095661;28;20276;-48
2021/03/01 06:07:11;;;;;;;15.82;14.63;;;35.70;56.40;;;;;;5093694;28;20270;-48
2021/03/01 06:09:43;;;;;;;18.10;16.60;;;35.70;56.70;;;;;;5090418;28;20188;-48
2021/03/01 06:12:14;;;;;;;23.65;21.63;;;35.70;56.80;;;;;;5082134;28;20200;-47
2021/03/01 06:14:44;;;;;;;18.70;17.10;;;35.70;56.80;;;;;;5091521;28;20244;-47
2021/03/01 06:17:18;;;;;;;16.00;14.57;;;35.70;56.30;;;;;;5104985;27;20297;-49
2021/03/01 06:19:50;;;;;;;14.45;13.15;;;35.60;56.50;;;;;;5131720;27;20189;-48
2021/03/01 06:22:21;;;;;;;14.45;13.32;;;35.70;56.80;;;;;;5146075;27;20213;-49
2021/03/01 06:25:09;;;;;;;17.38;15.95;;;35.70;56.50;;;;;;5139226;27;20538;-48
2021/03/01 06:27:50;;;;;;;16.00;14.60;;;35.80;55.20;;;;;;5131239;27;20758;-49
2021/03/01 06:30:21;;;;;;;14.63;13.52;;;35.70;55.60;;;;;;5129801;27;20285;-48
2021/03/01 06:33:08;;;;;;;14.90;13.57;;;35.80;55.90;;;;;;5129215;27;20219;-48
2021/03/01 06:35:41;;;;;;;14.98;13.77;;;35.70;56.10;;;;;;5143878;27;20194;-51
2021/03/01 06:38:22;;;;;;;14.65;13.55;;;35.80;56.30;;;;;;5144999;27;20202;-48
2021/03/01 06:41:13;;;;;;;14.38;13.32;;;35.80;56.30;;;;;;5128678;27;20274;-48
2021/03/01 06:43:55;;;;;;;13.07;12.07;;;35.90;56.30;;;;;;5130582;27;20192;-48
2021/03/01 06:46:29;;;;;;;13.18;12.13;;;35.90;56.40;;;;;;5130455;27;20240;-50
2021/03/01 06:49:13;;;;;;;13.07;12.07;;;36.00;56.60;;;;;;5145127;27;20270;-48
2021/03/01 06:51:43;;;;;;;14.95;13.65;;;36.00;56.40;;;;;;5147801;27;20684;-47
2021/03/01 06:54:14;;;;;;;14.00;12.90;;;36.00;55.00;;;;;;5143559;27;20198;-48
2021/03/01 06:56:46;;;;;;;13.90;12.80;;;36.00;55.50;;;;;;5144959;27;20199;-48
2021/03/01 06:59:17;;;;;;;13.05;12.00;;;36.00;55.90;;;;;;5129261;27;20187;-51
2021/03/01 07:01:49;;;;;;;11.70;10.68;;;36.00;56.10;;;;;;5139702;27;20273;-50
2021/03/01 07:04:23;;;;;;;11.27;10.43;;;36.00;56.30;;;;;;5145414;27;20210;-52
2021/03/01 07:06:54;;;;;;;11.45;10.55;;;36.00;56.40;;;;;;5142890;27;20190;-49
2021/03/01 07:09:25;;;;;;;11.43;10.43;;;36.10;56.50;;;;;;5130341;27;20630;-48
2021/03/01 07:11:57;;;;;;;12.60;11.70;;;36.10;56.50;;;;;;5130730;27;20195;-53
2021/03/01 07:14:28;;;;;;;13.82;12.63;;;36.20;55.70;;;;;;5130760;27;20265;-50
2021/03/01 07:16:58;;;;;;;12.35;11.38;;;36.30;55.00;;;;;;5129496;27;20216;-49
2021/03/01 07:19:30;;;;;;;13.45;12.15;;;36.40;55.30;;;;;;5130599;27;20195;-48
2021/03/01 07:22:01;;;;;;;13.63;12.38;;;36.40;54.60;;;;;;5130435;27;20196;-51
2021/03/01 07:24:32;;;;;;;12.93;11.93;;;36.50;54.80;;;;;;5130479;27;20202;-49
2021/03/01 07:27:04;;;;;;;12.27;11.30;;;36.60;54.90;;;;;;5130204;27;20538;-50
2021/03/01 07:29:36;;;;;;;12.95;11.95;;;36.60;55.10;;;;;;5128193;27;20513;-49
2021/03/01 07:32:07;;;;;;;13.68;12.35;;;36.60;54.90;;;;;;5066167;28;20649;-54
2021/03/01 07:34:38;;;;;;;13.82;12.73;;;36.70;54.90;;;;;;5066109;28;20213;-54
2021/03/01 07:37:09;;;;;;;12.75;11.65;;;36.80;54.50;;;;;;5066020;28;20625;-50
2021/03/01 07:39:40;;;;;;;14.07;12.88;;;36.80;54.80;;;;;;5065300;28;20653;-49
2021/03/01 07:42:13;;;;;;;13.32;12.23;;;36.90;53.80;;;;;;5065280;28;20209;-49
2021/03/01 07:44:43;;;;;;;11.85;10.93;;;36.90;54.00;;;;;;5066119;28;20771;-48
2021/03/01 07:47:14;;;;;;;12.07;11.07;;;36.90;54.00;;;;;;5065973;28;20216;-49
2021/03/01 07:49:45;;;;;;;11.50;10.60;;;36.90;54.40;;;;;;5065134;28;20227;-50
2021/03/01 07:52:36;;;;;;;12.10;11.13;;;37.00;54.30;;;;;;5065305;28;20202;-48
2021/03/01 07:55:12;;;;;;;12.35;11.18;;;37.10;53.10;;;;;;5065979;28;20201;-52
2021/03/01 07:57:43;;;;;;;10.63;9.68;;;37.20;53.30;;;;;;5125077;27;20745;-49
2021/03/01 08:00:24;;;;;;;12.18;11.07;;;37.20;53.60;;;;;;5085674;28;20219;-50
2021/03/01 08:02:54;;;;;;;11.45;10.45;;;37.30;53.20;;;;;;5086074;28;20227;-49
2021/03/01 08:05:27;;;;;;;11.00;10.20;;;37.30;53.20;;;;;;5065980;28;20229;-49
2021/03/01 08:07:57;;;;;;;10.48;9.65;;;37.40;53.70;;;;;;5066053;28;20284;-50
2021/03/01 08:10:46;;;;;;;11.18;10.15;;;37.40;53.90;;;;;;5065102;28;20263;-48
2021/03/01 08:13:18;;;;;;;10.90;10.00;;;37.50;53.60;;;;;;5056795;28;20268;-50
2021/03/01 08:15:48;;;;;;;10.77;9.75;;;37.50;53.60;;;;;;4935393;28;20248;-48
2021/03/01 08:18:19;;;;;;;10.75;9.80;;;37.50;53.20;;;;;;4925645;29;20230;-51
2021/03/01 08:20:59;;;;;;;10.15;9.25;;;37.50;52.90;;;;;;4923338;29;20264;-49
2021/03/01 08:23:38;;;;;;;10.13;9.23;;;37.50;52.80;;;;;;4925860;29;20203;-48
2021/03/01 08:26:10;;;;;;;11.10;10.20;;;37.50;52.80;;;;;;4925922;29;20213;-49
2021/03/01 08:28:51;;;;;;;10.68;9.77;;;37.30;52.70;;;;;;4924815;29;20279;-49
2021/03/01 08:31:32;;;;;;;10.25;9.45;;;37.30;53.10;;;;;;4977014;28;20889;-49
2021/03/01 08:34:24;;;;;;;11.45;10.45;;;37.20;53.30;;;;;;5025770;28;20226;-50
2021/03/01 08:36:55;;;;;;;10.23;9.40;;;37.10;53.50;;;;;;5037810;28;20254;-51
2021/03/01 08:39:58;;;;;;;9.43;8.70;;;37.00;53.60;;;;;;5044918;28;20198;-50
2021/03/01 08:42:47;;;;;;;11.20;10.20;;;36.80;53.70;;;;;;5045198;28;20275;-50
2021/03/01 08:45:42;;;;;;;9.95;9.05;;;36.70;54.00;;;;;;5044951;28;20733;-49
2021/03/01 08:48:21;;;;;;;10.45;9.50;;;36.60;54.30;;;;;;5005777;28;20230;-51
2021/03/01 08:50:52;;;;;;;12.85;11.57;;;36.50;54.60;;;;;;5005439;28;20218;-48
2021/03/01 08:53:24;;;;;;;10.68;9.77;;;36.40;55.20;;;;;;5005028;28;20731;-48
2021/03/01 08:55:54;;;;;;;10.52;9.68;;;36.20;55.50;;;;;;5005076;28;20192;-49
2021/03/01 08:58:29;;;;;;;10.02;9.13;;;36.20;55.70;;;;;;5009469;28;20225;-48
2021/03/01 09:01:01;;;;;;;10.63;9.57;;;36.10;55.90;;;;;;5008634;28;20228;-48
2021/03/01 09:03:32;;;;;;;10.27;9.25;;;36.00;55.70;;;;;;5004764;28;20298;-50
2021/03/01 09:06:08;;;;;;;10.25;9.50;;;36.00;55.90;;;;;;5005822;28;20790;-48
2021/03/01 09:08:39;;;;;;;10.60;9.70;;;36.00;55.90;;;;;;5005572;28;20199;-47
2021/03/01 09:11:13;;;;;;;11.18;10.27;;;36.00;55.60;;;;;;5005563;28;20227;-48
2021/03/01 09:13:46;;;;;;;11.55;10.57;;;36.00;55.60;;;;;;5011053;28;20214;-50
2021/03/01 09:16:17;;;;;;;9.70;9.00;;;35.90;55.90;;;;;;5128513;27;20222;-48
2021/03/01 09:18:48;;;;;;;10.88;9.98;;;35.90;56.10;;;;;;5128432;28;20210;-53
2021/03/01 09:21:19;;;;;;;10.23;9.23;;;35.80;56.20;;;;;;5130838;27;20209;-54
2021/03/01 09:23:50;;;;;;;10.77;9.77;;;35.80;56.60;;;;;;5132178;27;20195;-53
2021/03/01 09:26:25;;;;;;;9.82;8.82;;;35.80;56.90;;;;;;5132625;27;20756;-51
2021/03/01 09:28:56;;;;;;;10.68;9.68;;;35.80;57.00;;;;;;5122164;27;20589;-52
2021/03/01 09:31:36;;;;;;;9.70;8.75;;;35.80;57.10;;;;;;5132709;27;20278;-51
2021/03/01 09:34:07;;;;;;;9.40;8.70;;;35.80;57.40;;;;;;5067425;28;20262;-48
2021/03/01 09:36:39;;;;;;;9.70;8.90;;;35.80;57.80;;;;;;5065261;28;20256;-49
2021/03/01 09:39:10;;;;;;;8.48;7.78;;;35.80;58.00;;;;;;5068263;28;20209;-47
2021/03/01 09:41:49;;;;;;;9.18;8.40;;;35.80;58.00;;;;;;5068007;28;20554;-51
2021/03/01 09:44:24;;;;;;;11.10;9.05;;;35.80;58.20;;;;;;5067568;28;20470;-51
2021/03/01 09:46:56;;;;;;;8.90;8.05;;;35.80;58.60;;;;;;5065371;28;20193;-52
2021/03/01 09:49:28;;;;;;;9.25;8.43;;;36.00;58.70;;;;;;5067874;28;20205;-50
2021/03/01 09:51:59;;;;;;;9.30;8.43;;;36.00;58.70;;;;;;5066884;28;20233;-51
2021/03/01 09:54:31;;;;;;;8.63;7.93;;;36.10;58.70;;;;;;5067399;28;20754;-48
2021/03/01 09:57:06;;;;;;;10.93;9.98;;;36.20;58.70;;;;;;5067600;28;20230;-48
2021/03/01 09:59:37;;;;;;;10.77;9.63;;;36.30;59.00;;;;;;5067335;28;20244;-49
2021/03/01 10:02:10;;;;;;;9.40;8.60;;;36.40;58.90;;;;;;5068085;28;20189;-49
2021/03/01 10:04:41;;;;;;;9.80;8.77;;;36.40;58.30;;;;;;5081791;27;20316;-51
2021/03/01 10:07:19;;;;;;;10.20;9.30;;;36.50;58.20;;;;;;5131715;27;20199;-49
2021/03/01 10:09:49;;;;;;;9.55;8.68;;;36.50;58.00;;;;;;5121292;27;20211;-51
2021/03/01 10:12:21;;;;;;;8.80;8.00;;;36.50;57.90;;;;;;5132037;27;20195;-49
2021/03/01 10:14:57;;;;;;;11.02;10.02;;;36.50;57.90;;;;;;5131969;27;20778;-50
2021/03/01 10:17:31;;;;;;;11.20;10.25;;;36.50;58.10;;;;;;5130711;27;20222;-49
2021/03/01 10:20:07;;;;;;;10.32;9.52;;;36.50;58.30;;;;;;5131340;27;20204;-51
2021/03/01 10:23:04;;;;;;;9.35;8.45;;;36.40;58.50;;;;;;5132436;27;20264;-48
2021/03/01 10:25:35;;;;;;;9.18;8.38;;;36.40;58.70;;;;;;5131362;27;20192;-50
2021/03/01 10:28:28;;;;;;;9.18;8.32;;;36.40;59.40;;;;;;5131471;27;21414;-49
2021/03/01 10:31:02;;;;;;;9.50;8.60;;;36.40;59.10;;;;;;5131614;27;20196;-48
2021/03/01 10:33:48;;;;;;;9.65;8.70;;;36.40;59.30;;;;;;5130689;27;20235;-51
2021/03/01 10:36:19;;;;;;;9.20;8.27;;;36.40;59.10;;;;;;5131425;27;20211;-52
2021/03/01 10:39:00;;;;;;;8.77;8.07;;;36.40;58.60;;;;;;5131817;27;20199;-53
2021/03/01 10:41:31;;;;;;;8.95;8.20;;;36.40;58.50;;;;;;5131686;27;20330;-49
2021/03/01 10:44:03;;;;;;;8.63;7.82;;;36.40;58.40;;;;;;5131133;27;20195;-51
2021/03/01 10:46:46;;;;;;;9.82;8.93;;;36.30;58.30;;;;;;5131379;27;20537;-51
2021/03/01 10:49:20;;;;;;;9.60;8.70;;;36.10;58.30;;;;;;5131250;27;20207;-51
2021/03/01 10:51:52;;;;;;;9.18;8.48;;;36.00;58.20;;;;;;5131104;27;20643;-49
2021/03/01 10:54:22;;;;;;;9.55;8.75;;;35.80;58.20;;;;;;5131198;27;20214;-51
2021/03/01 10:56:53;;;;;;;8.57;7.88;;;35.70;58.70;;;;;;5131343;27;20215;-48
2021/03/01 10:59:23;;;;;;;9.10;8.30;;;35.50;59.10;;;;;;5131626;27;20280;-48
2021/03/01 11:01:53;;;;;;;9.30;8.23;;;35.40;59.70;;;;;;5132038;27;20199;-47
2021/03/01 11:04:25;;;;;;;9.63;8.75;;;35.20;60.00;;;;;;5130082;27;20235;-48
2021/03/01 11:06:55;;;;;;;9.38;8.57;;;35.10;60.40;;;;;;5127705;27;20196;-50
2021/03/01 11:09:26;;;;;;;10.88;9.88;;;35.00;60.60;;;;;;5129426;27;20204;-48
2021/03/01 11:11:56;;;;;;;11.75;10.75;;;34.90;61.10;;;;;;5128970;27;20573;-50
2021/03/01 11:14:27;;;;;;;10.25;9.35;;;34.80;61.80;;;;;;5128690;27;20591;-50
2021/03/01 11:16:58;;;;;;;9.93;9.13;;;34.70;61.80;;;;;;5129001;27;20317;-53
2021/03/01 11:19:30;;;;;;;9.55;8.77;;;34.60;62.10;;;;;;5113746;27;20206;-50
2021/03/01 11:22:00;;;;;;;10.63;9.73;;;34.50;62.50;;;;;;5124743;27;20280;-49
2021/03/01 11:24:31;;;;;;;9.90;8.90;;;34.40;62.70;;;;;;5128305;27;20195;-50
2021/03/01 11:27:01;;;;;;;10.23;9.40;;;34.30;63.00;;;;;;5128166;27;20257;-51
2021/03/01 11:29:33;;;;;;;11.40;10.40;;;34.30;64.20;;;;;;5128825;27;20856;-48
2021/03/01 11:32:04;;;;;;;9.75;8.85;;;34.20;63.70;;;;;;5128862;27;20747;-49
2021/03/01 11:34:36;;;;;;;9.85;8.95;;;34.20;63.80;;;;;;5140886;27;20304;-48
2021/03/01 11:37:07;;;;;;;10.10;9.25;;;34.10;64.20;;;;;;5128554;27;20215;-52
2021/03/01 11:39:37;;;;;;;10.32;9.43;;;34.00;64.50;;;;;;5126358;27;20245;-52
2021/03/01 11:42:08;;;;;;;10.38;9.55;;;34.00;65.00;;;;;;5128253;27;20187;-50
2021/03/01 11:44:38;;;;;;;12.90;11.80;;;33.90;65.10;;;;;;5126412;27;20202;-48
2021/03/01 11:47:09;;;;;;;12.00;10.80;;;33.80;66.10;;;;;;5127657;27;20215;-50
2021/03/01 11:49:41;;;;;;;9.93;9.02;;;33.70;66.40;;;;;;5131991;27;20223;-48
2021/03/01 11:52:11;;;;;;;11.13;10.23;;;33.60;66.40;;;;;;5138169;27;20195;-49
2021/03/01 11:54:43;;;;;;;11.45;10.45;;;33.60;66.60;;;;;;5128553;27;20204;-48
2021/03/01 11:57:14;;;;;;;12.40;11.10;;;33.50;66.90;;;;;;5128068;27;20260;-54
2021/03/01 11:59:47;;;;;;;12.05;10.85;;;33.50;67.30;;;;;;5127292;27;20195;-50
2021/03/01 12:02:18;;;;;;;13.88;12.57;;;33.40;67.40;;;;;;5063812;28;20316;-50
2021/03/01 12:04:49;;;;;;;16.50;14.80;;;33.40;67.60;;;;;;5059972;28;20229;-51
2021/03/01 12:07:19;;;;;;;15.55;14.10;;;33.30;67.90;;;;;;5052542;28;20198;-50
2021/03/01 12:09:50;;;;;;;13.00;11.68;;;33.30;68.00;;;;;;5060112;28;20207;-52
2021/03/01 12:12:21;;;;;;;10.88;9.80;;;33.30;68.30;;;;;;5061349;28;20267;-49
2021/03/01 12:14:51;;;;;;;10.90;9.90;;;33.30;68.70;;;;;;5063883;28;20243;-51
2021/03/01 12:17:22;;;;;;;10.77;9.88;;;33.20;69.30;;;;;;5063354;28;20236;-51
2021/03/01 12:19:53;;;;;;;11.75;9.98;;;33.10;69.60;;;;;;5062808;28;20209;-52
2021/03/01 12:22:24;;;;;;;9.45;8.55;;;33.10;69.80;;;;;;5056277;28;20206;-48
2021/03/01 12:24:54;;;;;;;8.75;7.95;;;33.00;69.60;;;;;;5068819;28;20209;-49
2021/03/01 12:27:25;;;;;;;9.32;8.43;;;33.00;69.80;;;;;;5056856;28;20857;-51
2021/03/01 12:29:56;;;;;;;10.10;9.10;;;33.00;70.10;;;;;;5059072;28;20323;-49
2021/03/01 12:32:26;;;;;;;9.25;8.38;;;33.00;70.10;;;;;;5070024;27;20198;-49
2021/03/01 12:34:59;;;;;;;9.30;8.40;;;32.90;70.20;;;;;;5126270;27;20719;-50
2021/03/01 12:37:29;;;;;;;11.90;8.93;;;32.90;70.30;;;;;;5124572;27;20259;-50
2021/03/01 12:40:00;;;;;;;10.60;9.57;;;32.90;70.50;;;;;;5126912;27;20221;-49
2021/03/01 12:42:30;;;;;;;10.82;9.73;;;32.90;70.60;;;;;;5127174;27;20196;-50
2021/03/01 12:45:01;;;;;;;9.65;8.73;;;32.90;70.70;;;;;;5126530;27;20223;-48
2021/03/01 12:47:32;;;;;;;10.38;9.32;;;32.90;70.80;;;;;;5125706;27;20199;-51
2021/03/01 12:50:04;;;;;;;10.43;9.35;;;32.90;70.80;;;;;;5126576;27;20576;-51
2021/03/01 12:52:35;;;;;;;10.23;9.07;;;32.90;71.00;;;;;;5126801;27;20192;-48
2021/03/01 12:55:07;;;;;;;10.55;8.63;;;32.90;71.00;;;;;;5126290;27;20275;-48
2021/03/01 12:57:38;;;;;;;10.05;9.05;;;32.90;71.10;;;;;;5126835;27;20222;-48
2021/03/01 13:00:10;;;;;;;11.23;9.52;;;32.90;71.20;;;;;;5128040;27;20559;-48